createdAt,value
2019-04-26T00:01:43.974Z,99849.56
2019-04-26T00:04:09.966Z,99838.21
2019-04-26T00:06:34.983Z,99841.92
2019-04-26T00:09:01.170Z,99837.59
2019-04-26T00:11:27.619Z,99840.00
2019-04-26T00:14:12.413Z,99840.32
2019-04-26T00:16:38.584Z,99835.63
2019-04-26T00:19:03.125Z,99830.92
2019-04-26T00:21:27.957Z,99832.84
2019-04-26T00:23:52.739Z,99798.23
2019-04-26T00:26:17.721Z,99829.78
2019-04-26T00:28:42.363Z,99828.21
2019-04-26T00:31:06.949Z,99821.72
2019-04-26T00:33:31.671Z,99826.93
2019-04-26T00:35:56.227Z,99819.91
2019-04-26T00:38:20.825Z,99823.06
2019-04-26T00:40:45.551Z,99830.45
2019-04-26T00:43:10.560Z,99835.90
2019-04-26T00:45:36.479Z,99833.82
2019-04-26T00:48:01.782Z,99849.73
2019-04-26T00:50:26.391Z,99895.89
2019-04-26T00:52:51.900Z,99910.95
2019-04-26T00:55:17.618Z,99884.31
2019-04-26T00:57:43.154Z,99866.53
2019-04-26T01:00:09.440Z,99873.60
2019-04-26T01:02:38.373Z,99904.47
2019-04-26T01:05:02.978Z,99925.18
2019-04-26T01:07:27.531Z,99919.43
2019-04-26T01:09:52.027Z,99901.30
2019-04-26T01:12:17.733Z,99868.45
2019-04-26T01:14:42.419Z,99847.62
2019-04-26T01:17:06.955Z,99846.56
2019-04-26T01:19:33.265Z,99861.48
2019-04-26T01:22:00.533Z,99888.06
2019-04-26T01:24:27.498Z,99894.03
2019-04-26T01:26:54.699Z,99884.06
2019-04-26T01:29:21.796Z,99856.78
2019-04-26T01:32:01.167Z,99834.05
2019-04-26T01:34:26.213Z,99819.70
2019-04-26T01:36:53.225Z,99809.19
2019-04-26T01:39:19.740Z,99814.08
2019-04-26T01:41:52.153Z,99816.12
2019-04-26T01:44:24.652Z,99820.47
2019-04-26T01:46:50.382Z,99821.36
2019-04-26T01:49:17.238Z,99827.13
2019-04-26T01:51:44.741Z,99838.08
2019-04-26T01:54:12.177Z,99833.92
2019-04-26T01:56:37.689Z,99821.17
2019-04-26T01:59:02.332Z,99818.22
2019-04-26T02:01:31.699Z,99820.18
2019-04-26T02:03:56.306Z,99811.39
2019-04-26T02:06:28.836Z,99821.47
2019-04-26T02:08:47.623Z,99812.66
2019-04-26T02:11:12.249Z,99810.88
2019-04-26T02:13:36.846Z,99803.73
2019-04-26T02:16:01.465Z,99809.22
2019-04-26T02:18:27.295Z,99825.83
2019-04-26T02:21:04.701Z,99826.59
2019-04-26T02:23:32.053Z,99815.33
2019-04-26T02:25:56.696Z,99801.80
2019-04-26T02:28:21.232Z,99800.48
2019-04-26T02:30:45.999Z,99802.77
2019-04-26T02:33:10.604Z,99792.97
2019-04-26T02:35:35.842Z,99791.28
2019-04-26T02:38:00.642Z,99801.02
2019-04-26T02:40:26.116Z,99791.77
2019-04-26T02:42:51.620Z,99781.47
2019-04-26T02:45:54.633Z,99785.55
2019-04-26T02:48:34.289Z,99774.65
2019-04-26T02:51:04.524Z,99779.16
2019-04-26T02:53:44.089Z,99780.20
2019-04-26T02:56:34.103Z,99772.38
2019-04-26T02:59:01.812Z,99767.54
2019-04-26T03:01:31.277Z,99772.24
2019-04-26T03:03:54.748Z,99774.69
2019-04-26T03:06:19.421Z,99776.59
2019-04-26T03:08:44.622Z,99797.61
2019-04-26T03:11:12.120Z,99803.43
2019-04-26T03:13:53.583Z,99795.05
2019-04-26T03:16:25.163Z,99794.49
2019-04-26T03:18:54.315Z,99784.00
2019-04-26T03:21:34.550Z,99783.03
2019-04-26T03:24:22.106Z,99783.83
2019-04-26T03:27:10.109Z,99776.34
2019-04-26T03:30:18.493Z,99773.03
2019-04-26T03:32:47.883Z,99783.92
2019-04-26T03:35:23.685Z,99784.51
2019-04-26T03:37:55.479Z,99784.73
2019-04-26T03:40:43.173Z,99784.88
2019-04-26T03:43:27.108Z,99783.29
2019-04-26T03:46:00.142Z,99789.09
2019-04-26T03:48:35.438Z,99790.07
2019-04-26T03:51:06.041Z,99798.58
2019-04-26T03:53:35.580Z,99798.80
2019-04-26T03:56:08.744Z,99815.95
2019-04-26T03:58:59.748Z,99820.14
2019-04-26T04:01:26.020Z,99829.16
2019-04-26T04:03:53.323Z,99827.85
2019-04-26T04:06:22.463Z,99826.75
2019-04-26T04:08:55.880Z,99827.47
2019-04-26T04:11:26.360Z,99827.11
2019-04-26T04:14:06.395Z,99830.63
2019-04-26T04:16:46.770Z,99824.88
2019-04-26T04:19:33.059Z,99820.77
2019-04-26T04:22:15.631Z,99820.25
2019-04-26T04:24:50.836Z,99811.20
2019-04-26T04:27:25.102Z,99816.87
2019-04-26T04:29:56.076Z,99816.59
2019-04-26T04:32:35.794Z,99818.35
2019-04-26T04:35:06.498Z,99824.23
2019-04-26T04:37:32.632Z,99830.83
2019-04-26T04:40:16.794Z,99840.63
2019-04-26T04:43:01.110Z,99838.36
2019-04-26T04:45:43.895Z,99833.79
2019-04-26T04:48:31.189Z,99831.34
2019-04-26T04:51:05.099Z,99829.69
2019-04-26T04:53:43.454Z,99821.95
2019-04-26T04:56:16.815Z,99820.37
2019-04-26T04:58:53.197Z,99825.48
2019-04-26T05:01:32.007Z,99820.31
2019-04-26T05:04:04.016Z,99810.47
2019-04-26T05:07:06.035Z,99812.70
2019-04-26T05:09:39.258Z,99822.68
2019-04-26T05:12:15.759Z,99831.84
2019-04-26T05:14:48.864Z,99834.98
2019-04-26T05:17:23.148Z,99841.41
2019-04-26T05:19:59.655Z,99845.62
2019-04-26T05:22:38.607Z,99846.65
2019-04-26T05:25:42.371Z,99851.02
2019-04-26T05:28:30.926Z,99861.03
2019-04-26T05:31:09.157Z,99870.23
2019-04-26T05:33:37.317Z,99866.04
2019-04-26T05:36:20.315Z,99868.27
2019-04-26T05:39:03.002Z,99867.80
2019-04-26T05:41:41.165Z,99866.64
2019-04-26T05:44:16.302Z,99865.92
2019-04-26T05:46:45.471Z,99872.11
2019-04-26T05:49:26.548Z,99876.23
2019-04-26T05:52:21.426Z,99874.92
2019-04-26T05:55:07.005Z,99830.66
2019-04-26T05:58:07.794Z,99889.74
2019-04-26T06:00:36.940Z,99887.81
2019-04-26T06:03:20.613Z,99886.59
2019-04-26T06:05:56.484Z,99880.28
2019-04-26T06:08:31.557Z,99878.98
2019-04-26T06:10:59.992Z,99877.32
2019-04-26T06:13:43.968Z,99880.81
2019-04-26T06:16:37.071Z,99887.94
2019-04-26T06:19:25.651Z,99897.78
2019-04-26T06:22:07.876Z,99910.97
2019-04-26T06:24:44.128Z,99917.06
2019-04-26T06:27:27.649Z,99919.02
2019-04-26T06:30:01.368Z,99910.42
2019-04-26T06:33:00.279Z,99916.46
2019-04-26T06:35:26.209Z,99930.84
2019-04-26T06:38:20.740Z,99921.67
2019-04-26T06:40:48.318Z,99931.00
2019-04-26T06:43:17.468Z,99930.83
2019-04-26T06:46:10.566Z,99934.48
2019-04-26T06:48:45.869Z,99940.72
2019-04-26T06:51:24.232Z,99947.06
2019-04-26T06:54:07.306Z,99955.89
2019-04-26T06:57:17.075Z,99959.95
2019-04-26T07:00:04.729Z,99953.23
2019-04-26T07:02:53.511Z,99952.11
2019-04-26T07:05:33.324Z,99952.42
2019-04-26T07:08:27.935Z,99953.86
2019-04-26T07:11:01.260Z,99957.38
2019-04-26T07:13:49.746Z,99949.31
2019-04-26T07:16:23.250Z,99962.25
2019-04-26T07:19:19.508Z,99949.07
2019-04-26T07:22:35.608Z,99953.95
2019-04-26T07:25:35.101Z,99961.11
2019-04-26T07:28:17.811Z,99967.77
2019-04-26T07:30:56.921Z,99977.02
2019-04-26T07:33:36.972Z,99969.94
2019-04-26T07:36:30.476Z,99974.25
2019-04-26T07:39:23.382Z,99962.34
2019-04-26T07:42:01.765Z,99956.09
2019-04-26T07:44:37.656Z,99964.05
2019-04-26T07:47:05.988Z,99959.95
2019-04-26T07:50:07.406Z,99961.07
2019-04-26T07:52:54.553Z,99964.36
2019-04-26T07:55:34.221Z,99960.20
2019-04-26T07:58:34.897Z,99961.11
2019-04-26T08:01:04.087Z,99959.70
2019-04-26T08:03:35.920Z,99953.12
2019-04-26T08:06:15.576Z,99955.36
2019-04-26T08:08:55.110Z,99953.41
2019-04-26T08:11:22.548Z,99962.65
2019-04-26T08:14:10.740Z,99976.27
2019-04-26T08:16:48.421Z,99982.16
2019-04-26T08:19:15.953Z,99986.28
2019-04-26T08:21:48.023Z,99986.94
2019-04-26T08:24:14.553Z,99971.70
2019-04-26T08:26:42.152Z,99968.13
2019-04-26T08:29:10.509Z,99965.75
2019-04-26T08:31:38.568Z,99971.01
2019-04-26T08:34:08.683Z,99955.36
2019-04-26T08:36:37.916Z,99965.25
2019-04-26T08:39:03.010Z,99952.66
2019-04-26T08:41:27.899Z,99950.83
2019-04-26T08:44:03.729Z,99964.87
2019-04-26T08:46:38.382Z,99985.36
2019-04-26T08:49:19.406Z,99980.73
2019-04-26T08:51:46.121Z,99994.23
2019-04-26T08:54:13.467Z,99982.74
2019-04-26T08:56:40.977Z,99994.66
2019-04-26T08:59:26.484Z,100005.47
2019-04-26T09:02:07.101Z,99997.17
2019-04-26T09:04:47.237Z,100003.34
2019-04-26T09:07:19.158Z,99998.42
2019-04-26T09:09:56.664Z,100009.23
2019-04-26T09:12:22.824Z,100009.64
2019-04-26T09:14:45.278Z,100020.47
2019-04-26T09:17:09.836Z,100005.51
2019-04-26T09:19:34.438Z,100013.34
2019-04-26T09:22:12.413Z,100013.23
2019-04-26T09:24:46.587Z,100007.89
2019-04-26T09:27:22.523Z,100009.89
2019-04-26T09:29:52.817Z,100008.67
2019-04-26T09:32:18.992Z,100021.86
2019-04-26T09:34:43.834Z,100027.95
2019-04-26T09:37:08.866Z,100023.41
2019-04-26T09:39:33.344Z,100014.41
2019-04-26T09:42:01.126Z,100018.66
2019-04-26T09:44:33.999Z,100021.46
2019-04-26T09:47:12.511Z,100027.04
2019-04-26T09:49:55.322Z,100030.20
2019-04-26T09:52:21.415Z,100038.26
2019-04-26T09:54:45.972Z,100038.48
2019-04-26T09:57:10.528Z,100045.68
2019-04-26T09:59:36.338Z,100050.73
2019-04-26T10:02:01.348Z,100045.16
2019-04-26T10:04:25.904Z,100043.61
2019-04-26T10:06:50.513Z,100053.84
2019-04-26T10:09:20.765Z,100040.95
2019-04-26T10:11:45.036Z,100054.63
2019-04-26T10:14:13.881Z,100051.19
2019-04-26T10:16:42.891Z,100067.59
2019-04-26T10:19:09.054Z,100065.16
2019-04-26T10:21:33.524Z,100058.59
2019-04-26T10:23:57.998Z,100052.75
2019-04-26T10:26:23.114Z,100068.96
2019-04-26T10:28:50.626Z,100072.16
2019-04-26T10:31:17.170Z,100080.80
2019-04-26T10:33:41.321Z,100064.27
2019-04-26T10:36:05.875Z,100069.38
2019-04-26T10:38:30.348Z,100077.98
2019-04-26T10:40:54.889Z,100088.86
2019-04-26T10:43:19.521Z,100070.41
2019-04-26T10:45:45.977Z,100068.38
2019-04-26T10:48:13.917Z,100061.57
2019-04-26T10:50:36.541Z,100070.77
2019-04-26T10:53:15.168Z,100070.66
2019-04-26T10:55:41.356Z,100060.58
2019-04-26T10:58:10.410Z,100068.61
2019-04-26T11:00:36.600Z,100072.47
2019-04-26T11:03:04.564Z,100068.08
2019-04-26T11:05:27.372Z,100072.68
2019-04-26T11:07:53.427Z,100075.03
2019-04-26T11:10:18.212Z,100076.69
2019-04-26T11:12:44.799Z,100091.50
2019-04-26T11:15:11.193Z,100094.97
2019-04-26T11:17:35.813Z,100108.86
2019-04-26T11:20:00.873Z,100097.12
2019-04-26T11:22:29.187Z,100097.73
2019-04-26T11:24:53.914Z,100110.17
2019-04-26T11:27:17.754Z,100111.20
2019-04-26T11:29:53.299Z,100090.23
2019-04-26T11:32:08.985Z,100123.31
2019-04-26T11:34:33.457Z,100133.67
2019-04-26T11:36:58.066Z,100142.27
2019-04-26T11:39:22.538Z,100136.94
2019-04-26T11:41:47.078Z,100133.74
2019-04-26T11:44:11.545Z,100134.56
2019-04-26T11:46:44.617Z,100141.47
2019-04-26T11:49:03.137Z,100134.72
2019-04-26T11:51:28.690Z,100131.70
2019-04-26T11:53:53.211Z,100121.08
2019-04-26T11:56:17.693Z,100127.41
2019-04-26T11:58:42.226Z,100132.39
2019-04-26T12:01:08.337Z,100139.42
2019-04-26T12:03:32.807Z,100146.13
2019-04-26T12:06:01.949Z,100149.13
2019-04-26T12:08:28.045Z,100157.19
2019-04-26T12:10:52.651Z,100145.34
2019-04-26T12:13:17.209Z,100153.22
2019-04-26T12:15:43.848Z,100157.23
2019-04-26T12:18:09.648Z,100151.34
2019-04-26T12:20:34.299Z,100152.16
2019-04-26T12:22:58.788Z,100158.89
2019-04-26T12:25:23.244Z,100152.09
2019-04-26T12:27:48.084Z,100151.30
2019-04-26T12:30:12.970Z,100148.02
2019-04-26T12:32:37.501Z,100150.22
2019-04-26T12:35:01.965Z,100149.27
2019-04-26T12:37:26.645Z,100107.88
2019-04-26T12:39:51.355Z,100151.65
2019-04-26T12:42:16.122Z,100152.58
2019-04-26T12:44:53.771Z,100157.73
2019-04-26T12:47:19.882Z,100179.34
2019-04-26T12:49:44.366Z,100183.54
2019-04-26T12:52:08.870Z,100196.04
2019-04-26T12:54:33.348Z,100181.10
2019-04-26T12:57:01.538Z,100174.52
2019-04-26T12:59:26.605Z,100131.01
2019-04-26T13:01:50.412Z,100179.05
2019-04-26T13:04:14.849Z,100178.70
2019-04-26T13:06:44.874Z,100170.81
2019-04-26T13:09:21.982Z,100169.97
2019-04-26T13:12:01.288Z,100175.67
2019-04-26T13:14:30.358Z,100175.02
2019-04-26T13:17:01.178Z,100186.89
2019-04-26T13:19:25.797Z,100188.58
2019-04-26T13:21:50.256Z,100188.02
2019-04-26T13:24:14.818Z,100185.17
2019-04-26T13:26:39.430Z,100188.80
2019-04-26T13:29:04.034Z,100189.42
2019-04-26T13:31:31.634Z,100208.24
2019-04-26T13:33:58.356Z,100223.02
2019-04-26T13:36:20.913Z,100216.77
2019-04-26T13:38:45.403Z,100200.69
2019-04-26T13:41:09.932Z,100204.56
2019-04-26T13:43:34.543Z,100212.78
2019-04-26T13:46:12.636Z,100218.86
2019-04-26T13:48:54.873Z,100230.53
2019-04-26T13:51:20.989Z,100218.48
2019-04-26T13:53:45.560Z,100226.88
2019-04-26T13:56:10.120Z,100222.52
2019-04-26T13:58:34.681Z,100220.95
2019-04-26T14:00:59.301Z,100231.34
2019-04-26T14:03:27.103Z,100234.14
2019-04-26T14:05:50.162Z,100234.41
2019-04-26T14:08:17.525Z,100230.57
2019-04-26T14:10:40.951Z,100239.88
2019-04-26T14:13:05.450Z,100251.00
2019-04-26T14:15:30.051Z,100252.46
2019-04-26T14:17:54.673Z,100218.31
2019-04-26T14:20:23.214Z,100274.75
2019-04-26T14:22:47.104Z,100263.04
2019-04-26T14:25:13.352Z,100269.21
2019-04-26T14:27:39.533Z,100272.59
2019-04-26T14:30:06.948Z,100265.87
2019-04-26T14:32:32.747Z,100260.00
2019-04-26T14:34:57.232Z,100255.97
2019-04-26T14:37:21.714Z,100248.81
2019-04-26T14:39:50.538Z,100240.20
2019-04-26T14:42:12.474Z,100243.45
2019-04-26T14:44:48.933Z,100238.27
2019-04-26T14:47:13.938Z,100237.14
2019-04-26T14:49:38.784Z,100235.24
2019-04-26T14:51:56.178Z,100203.17
2019-04-26T14:54:20.725Z,100226.93
2019-04-26T14:56:52.157Z,100235.66
2019-04-26T14:59:12.218Z,100243.43
2019-04-26T15:01:42.406Z,100247.46
2019-04-26T15:04:28.094Z,100250.05
2019-04-26T15:06:57.981Z,100253.63
2019-04-26T15:09:20.229Z,100252.30
2019-04-26T15:11:53.031Z,100267.16
2019-04-26T15:14:12.778Z,100272.27
2019-04-26T15:16:41.419Z,100282.30
2019-04-26T15:19:06.264Z,100278.98
2019-04-26T15:21:31.734Z,100287.95
2019-04-26T15:23:59.431Z,100289.66
2019-04-26T15:26:29.387Z,100300.12
2019-04-26T15:28:50.413Z,100301.91
2019-04-26T15:31:17.190Z,100285.98
2019-04-26T15:33:42.728Z,100299.52
2019-04-26T15:36:11.123Z,100308.27
2019-04-26T15:38:40.996Z,100309.38
2019-04-26T15:41:05.446Z,100310.06
2019-04-26T15:43:29.673Z,100321.42
2019-04-26T15:46:12.583Z,100332.44
2019-04-26T15:48:39.713Z,100323.14
2019-04-26T15:51:04.266Z,100329.84
2019-04-26T15:53:28.778Z,100336.34
2019-04-26T15:55:53.323Z,100332.59
2019-04-26T15:58:17.872Z,100328.28
2019-04-26T16:00:42.898Z,100331.09
2019-04-26T16:03:07.668Z,100323.91
2019-04-26T16:05:32.793Z,100339.28
2019-04-26T16:08:01.213Z,100332.74
2019-04-26T16:10:25.702Z,100336.11
2019-04-26T16:12:49.763Z,100333.25
2019-04-26T16:15:14.890Z,100299.88
2019-04-26T16:17:40.244Z,100347.03
2019-04-26T16:20:07.572Z,100354.09
2019-04-26T16:22:33.210Z,100353.69
2019-04-26T16:24:58.250Z,100350.89
2019-04-26T16:27:30.739Z,100345.36
2019-04-26T16:29:58.282Z,100349.22
2019-04-26T16:32:28.958Z,100364.55
2019-04-26T16:34:53.490Z,100367.52
2019-04-26T16:37:22.001Z,100358.78
2019-04-26T16:39:48.391Z,100358.95
2019-04-26T16:42:10.475Z,100363.07
2019-04-26T16:44:34.926Z,100370.70
2019-04-26T16:47:03.588Z,100367.87
2019-04-26T16:49:25.594Z,100372.84
2019-04-26T16:51:54.518Z,100376.98
2019-04-26T16:54:21.601Z,100383.04
2019-04-26T16:56:43.873Z,100380.47
2019-04-26T16:59:14.370Z,100376.35
2019-04-26T17:01:38.129Z,100374.00
2019-04-26T17:04:01.062Z,100378.73
2019-04-26T17:06:25.600Z,100376.97
2019-04-26T17:08:57.646Z,100390.15
2019-04-26T17:11:16.349Z,100393.03
2019-04-26T17:13:49.282Z,100398.51
2019-04-26T17:16:07.006Z,100398.50
2019-04-26T17:18:32.393Z,100400.13
2019-04-26T17:20:56.927Z,100395.81
2019-04-26T17:23:23.941Z,100386.29
2019-04-26T17:25:51.033Z,100372.59
2019-04-26T17:28:18.079Z,100375.12
2019-04-26T17:30:44.451Z,100388.48
2019-04-26T17:33:08.132Z,100382.16
2019-04-26T17:35:32.807Z,100390.20
2019-04-26T17:38:01.288Z,100391.31
2019-04-26T17:40:25.338Z,100397.63
2019-04-26T17:42:51.142Z,100390.78
2019-04-26T17:45:15.771Z,100387.73
2019-04-26T17:47:42.396Z,100387.14
2019-04-26T17:50:07.420Z,100384.45
2019-04-26T17:52:36.194Z,100386.00
2019-04-26T17:54:58.258Z,100377.70
2019-04-26T17:57:33.530Z,100376.75
2019-04-26T17:59:50.972Z,100377.78
2019-04-26T18:02:31.274Z,100376.18
2019-04-26T18:04:43.092Z,100386.50
2019-04-26T18:07:33.762Z,100383.59
2019-04-26T18:09:45.808Z,100391.30
2019-04-26T18:12:03.457Z,100383.93
2019-04-26T18:14:30.303Z,100385.15
2019-04-26T18:16:57.145Z,100396.36
2019-04-26T18:19:26.280Z,100403.80
2019-04-26T18:21:56.015Z,100410.63
2019-04-26T18:24:16.467Z,100411.39
2019-04-26T18:26:40.980Z,100417.77
2019-04-26T18:29:06.008Z,100427.05
2019-04-26T18:31:30.485Z,100431.38
2019-04-26T18:34:00.693Z,100438.30
2019-04-26T18:36:23.583Z,100435.84
2019-04-26T18:38:48.893Z,100435.70
2019-04-26T18:41:14.312Z,100428.23
2019-04-26T18:43:38.917Z,100430.45
2019-04-26T18:46:06.683Z,100423.05
2019-04-26T18:48:35.474Z,100439.69
2019-04-26T18:50:57.557Z,100452.59
2019-04-26T18:53:39.446Z,100454.63
2019-04-26T18:56:03.448Z,100454.81
2019-04-26T18:58:30.309Z,100469.13
2019-04-26T19:00:57.407Z,100469.70
2019-04-26T19:03:24.722Z,100471.73
2019-04-26T19:05:46.850Z,100467.45
2019-04-26T19:08:12.765Z,100469.14
2019-04-26T19:10:37.659Z,100466.12
2019-04-26T19:13:07.168Z,100479.81
2019-04-26T19:15:41.924Z,100480.77
2019-04-26T19:18:17.439Z,100479.16
2019-04-26T19:20:46.761Z,100490.87
2019-04-26T19:23:12.149Z,100497.98
2019-04-26T19:25:40.954Z,100494.12
2019-04-26T19:28:07.827Z,100496.33
2019-04-26T19:30:29.842Z,100498.31
2019-04-26T19:32:54.434Z,100496.90
2019-04-26T19:35:19.037Z,100491.42
2019-04-26T19:37:43.601Z,100495.20
2019-04-26T19:40:09.950Z,100491.22
2019-04-26T19:42:34.687Z,100508.20
2019-04-26T19:45:12.007Z,100522.84
2019-04-26T19:47:35.465Z,100547.48
2019-04-26T19:50:03.062Z,100579.34
2019-04-26T19:52:42.948Z,100594.62
2019-04-26T19:55:23.845Z,100597.99
2019-04-26T19:58:02.129Z,100601.38
2019-04-26T20:00:26.798Z,100592.81
2019-04-26T20:02:52.366Z,100593.36
2019-04-26T20:05:17.389Z,100586.73
2019-04-26T20:07:41.878Z,100574.05
2019-04-26T20:10:06.766Z,100566.33
2019-04-26T20:12:35.167Z,100557.94
2019-04-26T20:14:58.544Z,100561.45
2019-04-26T20:17:23.419Z,100573.91
2019-04-26T20:19:53.999Z,100573.50
2019-04-26T20:22:15.237Z,100567.88
2019-04-26T20:24:41.318Z,100568.16
2019-04-26T20:27:05.973Z,100564.56
2019-04-26T20:29:32.195Z,100566.02
2019-04-26T20:32:12.416Z,100563.98
2019-04-26T20:34:36.830Z,100574.31
2019-04-26T20:37:01.566Z,100574.20
2019-04-26T20:39:26.253Z,100574.30
2019-04-26T20:42:00.693Z,100578.19
2019-04-26T20:44:17.021Z,100568.56
2019-04-26T20:46:42.597Z,100564.71
2019-04-26T20:49:09.050Z,100552.73
2019-04-26T20:51:33.369Z,100551.69
2019-04-26T20:53:57.879Z,100541.95
2019-04-26T20:56:22.591Z,100533.50
2019-04-26T20:58:47.343Z,100528.28
2019-04-26T21:01:14.161Z,100519.11
2019-04-26T21:03:42.806Z,100513.22
2019-04-26T21:06:05.452Z,100508.52
2019-04-26T21:08:31.634Z,100496.72
2019-04-26T21:11:00.290Z,100480.36
2019-04-26T21:13:23.677Z,100474.20
2019-04-26T21:15:57.998Z,100479.86
2019-04-26T21:18:14.907Z,100484.81
2019-04-26T21:20:39.375Z,100490.52
2019-04-26T21:23:04.028Z,100490.23
2019-04-26T21:25:46.603Z,100496.10
2019-04-26T21:28:12.789Z,100503.95
2019-04-26T21:30:48.232Z,100516.75
2019-04-26T21:33:17.567Z,100526.66
2019-04-26T21:35:46.436Z,100536.83
2019-04-26T21:38:15.737Z,100533.42
2019-04-26T21:40:47.689Z,100530.41
2019-04-26T21:43:12.336Z,100522.77
2019-04-26T21:45:36.898Z,100521.30
2019-04-26T21:48:02.678Z,100528.44
2019-04-26T21:50:29.075Z,100535.25
2019-04-26T21:52:54.108Z,100538.19
2019-04-26T21:55:18.864Z,100545.70
2019-04-26T21:57:43.923Z,100554.55
2019-04-26T22:00:11.509Z,100550.30
2019-04-26T22:02:37.485Z,100546.63
2019-04-26T22:05:03.510Z,100536.05
2019-04-26T22:07:28.066Z,100533.72
2019-04-26T22:10:10.474Z,100544.91
2019-04-26T22:12:35.311Z,100541.07
2019-04-26T22:15:17.820Z,100545.53
2019-04-26T22:17:46.681Z,100498.31
2019-04-26T22:20:23.300Z,100544.69
2019-04-26T22:22:49.541Z,100550.20
2019-04-26T22:25:14.927Z,100550.58
2019-04-26T22:27:39.463Z,100552.92
2019-04-26T22:30:07.346Z,100546.56
2019-04-26T22:32:33.363Z,100550.39
2019-04-26T22:34:57.995Z,100552.11
2019-04-26T22:37:29.668Z,100553.25
2019-04-26T22:39:48.766Z,100552.78
2019-04-26T22:42:13.920Z,100544.95
2019-04-26T22:44:40.402Z,100530.51
2019-04-26T22:47:15.795Z,100527.98
2019-04-26T22:49:41.755Z,100508.71
2019-04-26T22:52:11.138Z,100510.69
2019-04-26T22:54:33.576Z,100510.69
2019-04-26T22:56:58.096Z,100512.36
2019-04-26T22:59:22.980Z,100523.54
2019-04-26T23:01:48.829Z,100532.18
2019-04-26T23:04:16.264Z,100532.35
2019-04-26T23:06:42.410Z,100531.31
2019-04-26T23:09:11.638Z,100527.92
2019-04-26T23:11:34.494Z,100526.51
2019-04-26T23:14:19.088Z,100530.03
2019-04-26T23:17:05.716Z,100537.66
2019-04-26T23:19:44.279Z,100543.81
2019-04-26T23:22:09.655Z,100543.94
2019-04-26T23:24:34.353Z,100539.92
2019-04-26T23:26:58.907Z,100534.05
2019-04-26T23:29:23.385Z,100532.87
2019-04-26T23:31:47.931Z,100525.02
2019-04-26T23:34:14.179Z,100527.47
2019-04-26T23:36:38.637Z,100520.64
2019-04-26T23:39:07.603Z,100518.42
2019-04-26T23:41:29.893Z,100520.44
2019-04-26T23:44:02.590Z,100499.67
2019-04-26T23:46:22.858Z,100500.17
2019-04-26T23:48:49.639Z,100482.38
2019-04-26T23:51:13.038Z,100476.51
2019-04-26T23:53:37.549Z,100472.81
2019-04-26T23:56:02.023Z,100465.95
2019-04-26T23:58:26.505Z,100465.80
